createdAt,value
2022-08-19T00:00:47.788Z,18.37
2022-08-19T00:03:19.678Z,17.15
2022-08-19T00:05:49.988Z,18.80
2022-08-19T00:08:20.036Z,18.45
2022-08-19T00:10:50.127Z,19.45
2022-08-19T00:13:20.695Z,17.13
2022-08-19T00:15:50.777Z,29.43
2022-08-19T00:18:22.598Z,19.13
2022-08-19T00:20:52.708Z,18.63
2022-08-19T00:23:23.137Z,28.33
2022-08-19T00:25:53.397Z,23.30
2022-08-19T00:28:23.737Z,21.67
2022-08-19T00:30:54.496Z,19.73
2022-08-19T00:33:25.995Z,19.08
2022-08-19T00:36:10.747Z,23.92
2022-08-19T00:38:44.216Z,23.23
2022-08-19T00:41:17.589Z,18.63
2022-08-19T00:44:03.897Z,18.40
2022-08-19T00:46:36.818Z,18.25
2022-08-19T00:49:12.368Z,19.50
2022-08-19T00:51:43.517Z,17.33
2022-08-19T00:54:14.026Z,16.70
2022-08-19T00:56:45.278Z,17.83
2022-08-19T00:59:16.588Z,17.40
2022-08-19T01:04:38.357Z,17.35
2022-08-19T01:07:09.469Z,21.55
2022-08-19T01:09:45.139Z,19.08
2022-08-19T01:12:15.807Z,18.15
2022-08-19T01:14:47.427Z,19.65
2022-08-19T01:17:19.477Z,18.20
2022-08-19T01:19:52.177Z,21.52
2022-08-19T01:22:34.007Z,17.92
2022-08-19T01:25:04.482Z,16.45
2022-08-19T01:27:49.187Z,19.73
2022-08-19T01:30:23.790Z,18.20
2022-08-19T01:32:54.986Z,21.33
2022-08-19T01:35:26.998Z,18.95
2022-08-19T01:38:02.586Z,20.05
2022-08-19T01:40:35.228Z,17.15
2022-08-19T01:43:06.975Z,15.93
2022-08-19T01:45:41.367Z,16.10
2022-08-19T01:48:11.878Z,17.08
2022-08-19T01:50:42.916Z,18.58
2022-08-19T01:53:15.207Z,19.70
2022-08-19T01:55:46.498Z,21.38
2022-08-19T01:58:23.110Z,20.13
2022-08-19T02:00:53.376Z,16.77
2022-08-19T02:03:24.026Z,17.60
2022-08-19T02:05:57.831Z,18.27
2022-08-19T02:08:30.036Z,18.50
2022-08-19T02:11:00.398Z,19.35
2022-08-19T02:13:30.738Z,18.10
2022-08-19T02:16:00.589Z,19.67
2022-08-19T02:18:34.943Z,20.60
2022-08-19T02:21:05.169Z,21.42
2022-08-19T02:23:37.061Z,22.25
2022-08-19T02:26:07.741Z,23.08
2022-08-19T02:28:38.903Z,19.67
2022-08-19T02:31:13.263Z,18.37
2022-08-19T02:33:43.839Z,19.02
2022-08-19T02:36:15.563Z,18.38
2022-08-19T02:38:47.150Z,17.65
2022-08-19T02:41:28.135Z,20.10
2022-08-19T02:44:26.423Z,21.92
2022-08-19T02:46:52.555Z,17.83
2022-08-19T02:49:23.076Z,17.85
2022-08-19T02:51:53.107Z,21.30
2022-08-19T02:54:24.716Z,20.05
2022-08-19T02:56:55.207Z,18.63
2022-08-19T02:59:27.057Z,17.58
2022-08-19T03:01:57.436Z,20.73
2022-08-19T03:04:27.880Z,25.45
2022-08-19T03:07:02.585Z,21.27
2022-08-19T03:09:43.690Z,20.95
2022-08-19T03:12:13.969Z,22.90
2022-08-19T03:14:43.838Z,20.60
2022-08-19T03:17:14.001Z,21.38
2022-08-19T03:19:45.050Z,18.77
2022-08-19T03:22:15.418Z,18.98
2022-08-19T03:24:47.171Z,20.23
2022-08-19T03:27:18.731Z,19.67
2022-08-19T03:29:49.240Z,19.50
2022-08-19T03:32:32.550Z,19.53
2022-08-19T03:35:15.540Z,18.27
2022-08-19T03:37:45.881Z,19.38
2022-08-19T03:40:17.978Z,17.65
2022-08-19T03:42:49.288Z,18.02
2022-08-19T03:45:20.871Z,21.92
2022-08-19T03:47:51.190Z,21.23
2022-08-19T03:50:22.260Z,18.73
2022-08-19T03:52:53.693Z,17.38
2022-08-19T03:55:25.971Z,20.17
2022-08-19T03:57:59.098Z,18.65
2022-08-19T04:00:29.710Z,18.42
2022-08-19T04:03:00.514Z,16.95
2022-08-19T04:05:31.749Z,19.80
2022-08-19T04:08:01.966Z,18.95
2022-08-19T04:10:33.998Z,19.50
2022-08-19T04:13:05.443Z,18.33
2022-08-19T04:15:40.822Z,25.77
2022-08-19T04:18:11.896Z,21.25
2022-08-19T04:23:14.430Z,19.98
2022-08-19T04:28:16.913Z,24.05
2022-08-19T04:30:50.034Z,21.40
2022-08-19T04:33:24.020Z,19.35
2022-08-19T04:35:59.526Z,19.15
2022-08-19T04:38:29.745Z,18.15
2022-08-19T04:41:18.890Z,20.13
2022-08-19T04:43:50.096Z,19.95
2022-08-19T04:46:39.632Z,20.10
2022-08-19T04:49:13.573Z,28.42
2022-08-19T04:51:47.055Z,19.25
2022-08-19T04:54:23.951Z,19.60
2022-08-19T04:57:12.247Z,20.17
2022-08-19T04:59:42.926Z,19.70
2022-08-19T05:02:13.496Z,20.15
2022-08-19T05:04:43.987Z,18.40
2022-08-19T05:07:14.928Z,21.42
2022-08-19T05:09:58.144Z,19.05
2022-08-19T05:12:30.999Z,22.63
2022-08-19T05:15:02.020Z,20.15
2022-08-19T05:17:37.751Z,18.55
2022-08-19T05:20:29.773Z,18.77
2022-08-19T05:23:00.168Z,22.77
2022-08-19T05:25:30.357Z,23.08
2022-08-19T05:28:11.139Z,23.20
2022-08-19T05:30:47.168Z,21.60
2022-08-19T05:33:17.852Z,17.98
2022-08-19T05:35:50.642Z,17.80
2022-08-19T05:38:21.792Z,20.63
2022-08-19T05:40:52.370Z,20.92
2022-08-19T05:43:24.719Z,16.75
2022-08-19T05:45:55.128Z,20.02
2022-08-19T05:48:25.279Z,17.25
2022-08-19T05:50:55.366Z,17.73
2022-08-19T05:53:25.876Z,20.90
2022-08-19T05:55:56.088Z,19.30
2022-08-19T05:58:30.229Z,20.85
2022-08-19T06:01:05.528Z,18.52
2022-08-19T06:03:36.836Z,18.10
2022-08-19T06:08:39.426Z,16.52
2022-08-19T06:11:21.899Z,21.25
2022-08-19T06:14:00.285Z,23.30
2022-08-19T06:16:32.869Z,14.98
2022-08-19T06:19:05.330Z,15.20
2022-08-19T06:21:38.439Z,21.95
2022-08-19T06:24:10.498Z,17.50
2022-08-19T06:29:24.166Z,16.23
2022-08-19T06:31:57.605Z,17.77
2022-08-19T06:34:30.478Z,16.50
2022-08-19T06:37:03.357Z,21.45
2022-08-19T06:39:36.158Z,16.15
2022-08-19T06:42:10.896Z,22.02
2022-08-19T06:44:48.075Z,17.52
2022-08-19T06:47:28.620Z,16.98
2022-08-19T06:50:05.552Z,16.13
2022-08-19T06:52:38.380Z,14.82
2022-08-19T06:55:09.696Z,14.50
2022-08-19T06:57:40.123Z,19.67
2022-08-19T07:00:15.366Z,16.00
2022-08-19T07:02:52.133Z,16.88
2022-08-19T07:05:27.897Z,14.30
2022-08-19T07:08:02.849Z,16.23
2022-08-19T07:10:36.406Z,16.10
2022-08-19T07:13:07.156Z,19.50
2022-08-19T07:15:40.071Z,21.50
2022-08-19T07:18:11.996Z,19.63
2022-08-19T07:20:44.326Z,13.95
2022-08-19T07:23:16.185Z,15.00
2022-08-19T07:25:53.157Z,17.63
2022-08-19T07:28:25.025Z,18.65
2022-08-19T07:30:59.678Z,15.75
2022-08-19T07:33:33.657Z,17.80
2022-08-19T07:36:04.407Z,13.70
2022-08-19T07:38:34.637Z,14.50
2022-08-19T07:41:05.026Z,15.88
2022-08-19T07:43:35.786Z,10.85
2022-08-19T07:48:45.403Z,15.68
2022-08-19T07:51:36.564Z,16.38
2022-08-19T07:54:07.597Z,14.82
2022-08-19T07:56:37.445Z,11.95
2022-08-19T07:59:08.988Z,13.07
2022-08-19T08:01:42.409Z,16.00
2022-08-19T08:04:29.657Z,12.38
2022-08-19T08:07:17.094Z,14.27
2022-08-19T08:09:49.611Z,14.85
2022-08-19T08:12:35.115Z,17.10
2022-08-19T08:15:12.709Z,12.95
2022-08-19T08:17:49.662Z,13.23
2022-08-19T08:20:22.645Z,15.82
2022-08-19T08:23:10.316Z,13.93
2022-08-19T08:25:40.474Z,11.02
2022-08-19T08:28:17.543Z,10.65
2022-08-19T08:30:50.714Z,16.15
2022-08-19T08:33:33.968Z,14.00
2022-08-19T08:36:06.900Z,10.05
2022-08-19T08:38:41.555Z,11.32
2022-08-19T08:41:21.852Z,12.70
2022-08-19T08:43:54.438Z,15.53
2022-08-19T08:46:31.688Z,11.05
2022-08-19T08:49:14.841Z,11.13
2022-08-19T08:51:59.242Z,12.38
2022-08-19T08:54:35.854Z,14.60
2022-08-19T08:57:10.920Z,9.05
2022-08-19T08:59:45.869Z,10.85
2022-08-19T09:02:16.928Z,17.75
2022-08-19T09:04:49.397Z,11.05
2022-08-19T09:07:35.367Z,13.07
2022-08-19T09:10:18.148Z,9.52
2022-08-19T09:12:57.470Z,10.20
2022-08-19T09:15:36.683Z,13.68
2022-08-19T09:18:07.802Z,16.20
2022-08-19T09:20:43.041Z,10.52
2022-08-19T09:23:14.023Z,12.30
2022-08-19T09:25:44.710Z,9.82
2022-08-19T09:28:21.996Z,17.90
2022-08-19T09:30:55.029Z,10.02
2022-08-19T09:33:25.384Z,12.82
2022-08-19T09:38:43.649Z,9.43
2022-08-19T09:41:16.481Z,12.50
2022-08-19T09:43:50.549Z,15.20
2022-08-19T09:46:26.159Z,9.40
2022-08-19T09:48:58.237Z,11.65
2022-08-19T09:51:35.330Z,12.90
2022-08-19T09:54:06.879Z,11.15
2022-08-19T09:56:42.382Z,7.45
2022-08-19T09:59:13.441Z,9.20
2022-08-19T10:01:44.097Z,11.90
2022-08-19T10:04:20.084Z,11.35
2022-08-19T10:06:55.386Z,10.35
2022-08-19T10:09:33.508Z,13.45
2022-08-19T10:12:06.290Z,10.80
2022-08-19T10:14:41.502Z,9.45
2022-08-19T10:17:17.933Z,16.35
2022-08-19T10:19:55.600Z,9.05
2022-08-19T10:22:28.428Z,14.73
2022-08-19T10:24:58.688Z,10.40
2022-08-19T10:27:32.119Z,9.38
2022-08-19T10:30:02.488Z,11.15
2022-08-19T10:32:34.109Z,16.08
2022-08-19T10:35:09.099Z,9.15
2022-08-19T10:37:57.409Z,15.60
2022-08-19T10:40:31.252Z,11.00
2022-08-19T10:43:01.631Z,11.18
2022-08-19T10:45:31.778Z,8.73
2022-08-19T10:48:03.381Z,8.75
2022-08-19T10:50:51.560Z,9.25
2022-08-19T10:53:26.846Z,8.63
2022-08-19T10:56:14.002Z,11.05
2022-08-19T10:58:45.900Z,10.93
2022-08-19T11:01:16.033Z,13.90
2022-08-19T11:03:47.329Z,10.57
2022-08-19T11:06:17.368Z,10.88
2022-08-19T11:08:49.219Z,16.90
2022-08-19T11:11:19.229Z,11.48
2022-08-19T11:13:51.050Z,11.52
2022-08-19T11:16:22.880Z,11.32
2022-08-19T11:18:55.409Z,17.42
2022-08-19T11:21:27.020Z,9.55
2022-08-19T11:24:01.709Z,12.20
2022-08-19T11:26:33.748Z,11.95
2022-08-19T11:29:05.230Z,11.75
2022-08-19T11:31:38.459Z,15.23
2022-08-19T11:34:11.328Z,18.73
2022-08-19T11:36:44.119Z,14.65
2022-08-19T11:39:18.022Z,10.65
2022-08-19T11:41:48.401Z,11.27
2022-08-19T11:44:19.088Z,12.32
2022-08-19T11:46:49.691Z,13.65
2022-08-19T11:49:22.278Z,15.65
2022-08-19T11:51:53.804Z,13.32
2022-08-19T11:54:26.418Z,16.02
2022-08-19T11:56:57.154Z,8.88
2022-08-19T11:59:28.090Z,11.57
2022-08-19T12:02:00.490Z,14.05
2022-08-19T12:04:31.190Z,14.10
2022-08-19T12:07:01.250Z,11.13
2022-08-19T12:09:33.190Z,9.07
2022-08-19T12:12:03.579Z,10.45
2022-08-19T12:14:34.109Z,9.90
2022-08-19T12:17:06.049Z,17.40
2022-08-19T12:19:38.548Z,10.82
2022-08-19T12:22:08.960Z,13.75
2022-08-19T12:24:40.758Z,11.23
2022-08-19T12:27:12.646Z,11.68
2022-08-19T12:29:43.420Z,11.70
2022-08-19T12:32:13.480Z,12.30
2022-08-19T12:34:44.551Z,9.20
2022-08-19T12:37:18.042Z,10.85
2022-08-19T12:39:49.773Z,14.45
2022-08-19T12:42:20.286Z,10.30
2022-08-19T12:44:50.311Z,10.77
2022-08-19T12:47:21.761Z,8.50
2022-08-19T12:49:55.575Z,13.35
2022-08-19T12:52:28.490Z,12.10
2022-08-19T12:55:00.144Z,8.45
2022-08-19T12:57:37.284Z,12.15
2022-08-19T13:00:12.009Z,11.35
2022-08-19T13:02:43.391Z,12.73
2022-08-19T13:05:15.402Z,8.73
2022-08-19T13:07:46.305Z,9.98
2022-08-19T13:12:51.651Z,12.23
2022-08-19T13:15:24.093Z,17.42
2022-08-19T13:17:57.297Z,16.90
2022-08-19T13:20:27.650Z,10.35
2022-08-19T13:22:58.510Z,11.57
2022-08-19T13:25:30.120Z,10.25
2022-08-19T13:28:00.459Z,9.75
2022-08-19T13:30:47.959Z,11.95
2022-08-19T13:33:18.619Z,9.60
2022-08-19T13:35:51.520Z,9.43
2022-08-19T13:38:23.995Z,15.07
2022-08-19T13:40:59.149Z,21.83
2022-08-19T13:43:30.601Z,11.60
2022-08-19T13:46:01.321Z,10.63
2022-08-19T13:48:32.361Z,10.10
2022-08-19T13:51:02.192Z,11.38
2022-08-19T13:53:32.520Z,11.40
2022-08-19T13:56:07.249Z,10.80
2022-08-19T13:58:37.619Z,11.82
2022-08-19T14:01:08.507Z,11.57
2022-08-19T14:03:39.300Z,12.38
2022-08-19T14:06:09.510Z,8.63
2022-08-19T14:08:46.030Z,13.85
2022-08-19T14:11:18.178Z,12.70
2022-08-19T14:13:48.999Z,14.07
2022-08-19T14:16:19.089Z,12.60
2022-08-19T14:18:49.818Z,11.93
2022-08-19T14:21:23.861Z,16.85
2022-08-19T14:23:54.399Z,12.95
2022-08-19T14:26:26.257Z,9.43
2022-08-19T14:28:59.019Z,14.13
2022-08-19T14:31:30.888Z,10.75
2022-08-19T14:34:01.735Z,13.30
2022-08-19T14:39:11.493Z,11.43
2022-08-19T14:41:44.329Z,15.20
2022-08-19T14:44:14.862Z,13.43
2022-08-19T14:46:49.346Z,9.18
2022-08-19T14:49:34.695Z,12.20
2022-08-19T14:52:06.581Z,13.80
2022-08-19T14:54:36.911Z,11.80
2022-08-19T14:57:08.980Z,10.23
2022-08-19T14:59:40.091Z,14.30
2022-08-19T15:02:33.811Z,12.20
2022-08-19T15:05:00.899Z,11.32
2022-08-19T15:07:31.129Z,13.20
2022-08-19T15:10:01.956Z,16.20
2022-08-19T15:12:35.290Z,11.18
2022-08-19T15:15:06.327Z,11.68
2022-08-19T15:17:54.487Z,10.63
2022-08-19T15:20:25.499Z,11.30
2022-08-19T15:22:55.562Z,10.77
2022-08-19T15:25:26.028Z,9.98
2022-08-19T15:27:57.659Z,12.07
2022-08-19T15:30:30.600Z,11.20
2022-08-19T15:33:01.199Z,17.20
2022-08-19T15:35:31.711Z,13.60
2022-08-19T15:38:01.854Z,13.82
2022-08-19T15:40:32.179Z,13.45
2022-08-19T15:45:34.519Z,11.05
2022-08-19T15:48:05.739Z,14.98
2022-08-19T15:50:39.810Z,12.85
2022-08-19T15:53:11.493Z,10.95
2022-08-19T15:55:48.809Z,14.10
2022-08-19T15:58:49.241Z,11.85
2022-08-19T16:01:45.179Z,11.85
2022-08-19T16:04:32.964Z,10.35
2022-08-19T16:07:05.119Z,19.67
2022-08-19T16:09:36.692Z,11.02
2022-08-19T16:12:08.871Z,13.98
2022-08-19T16:14:40.699Z,11.20
2022-08-19T16:17:13.009Z,13.02
2022-08-19T16:19:42.969Z,12.32
2022-08-19T16:22:13.430Z,18.10
2022-08-19T16:24:44.581Z,13.05
2022-08-19T16:27:16.849Z,10.60
2022-08-19T16:29:48.801Z,16.00
2022-08-19T16:32:19.812Z,14.13
2022-08-19T16:34:50.829Z,15.45
2022-08-19T16:37:23.509Z,15.65
2022-08-19T16:39:54.751Z,14.50
2022-08-19T16:42:25.133Z,14.38
2022-08-19T16:44:56.583Z,17.00
2022-08-19T16:47:27.119Z,18.10
2022-08-19T16:50:00.349Z,15.65
2022-08-19T16:52:30.679Z,12.43
2022-08-19T16:55:01.304Z,14.43
2022-08-19T16:57:32.551Z,13.98
2022-08-19T17:00:09.000Z,17.25
2022-08-19T17:02:39.891Z,14.15
2022-08-19T17:05:11.530Z,12.00
2022-08-19T17:07:42.163Z,11.95
2022-08-19T17:10:12.487Z,10.10
2022-08-19T17:12:42.879Z,13.50
2022-08-19T17:17:45.199Z,14.85
2022-08-19T17:20:15.631Z,11.27
2022-08-19T17:22:45.580Z,12.63
2022-08-19T17:25:16.099Z,18.38
2022-08-19T17:27:46.580Z,14.05
2022-08-19T17:30:18.189Z,10.93
2022-08-19T17:32:48.729Z,12.63
2022-08-19T17:35:24.077Z,18.02
2022-08-19T17:37:55.402Z,12.15
2022-08-19T17:40:26.482Z,11.07
2022-08-19T17:43:00.471Z,12.95
2022-08-19T17:45:32.729Z,14.07
2022-08-19T17:48:03.910Z,15.27
2022-08-19T17:50:35.461Z,16.08
2022-08-19T17:53:07.050Z,15.70
2022-08-19T17:55:43.818Z,16.23
2022-08-19T17:58:20.798Z,18.58
2022-08-19T18:00:55.709Z,13.60
2022-08-19T18:03:30.610Z,14.95
2022-08-19T18:06:00.548Z,17.02
2022-08-19T18:08:31.029Z,20.23
2022-08-19T18:11:01.021Z,19.55
2022-08-19T18:13:31.517Z,11.80
2022-08-19T18:16:03.375Z,20.92
2022-08-19T18:18:33.792Z,21.55
2022-08-19T18:21:03.911Z,16.88
2022-08-19T18:23:44.011Z,17.35
2022-08-19T18:26:16.076Z,13.20
2022-08-19T18:28:49.673Z,14.68
2022-08-19T18:31:23.630Z,15.00
2022-08-19T18:33:54.295Z,18.92
2022-08-19T18:39:32.260Z,17.98
2022-08-19T18:42:19.739Z,12.93
2022-08-19T18:45:07.687Z,11.45
2022-08-19T18:47:56.379Z,12.80
2022-08-19T18:50:26.540Z,12.82
2022-08-19T18:55:29.591Z,12.48
2022-08-19T18:57:59.600Z,17.70
2022-08-19T19:00:29.891Z,14.02
2022-08-19T19:03:01.389Z,14.40
2022-08-19T19:05:31.773Z,13.77
2022-08-19T19:08:01.961Z,14.32
2022-08-19T19:10:32.419Z,13.75
2022-08-19T19:13:02.518Z,21.25
2022-08-19T19:15:33.235Z,16.60
2022-08-19T19:18:05.199Z,14.65
2022-08-19T19:20:36.607Z,15.82
2022-08-19T19:23:08.032Z,15.40
2022-08-19T19:25:50.659Z,15.90
2022-08-19T19:28:28.980Z,14.98
2022-08-19T19:31:00.552Z,14.63
2022-08-19T19:33:32.821Z,12.38
2022-08-19T19:36:03.109Z,15.02
2022-08-19T19:38:33.959Z,17.85
2022-08-19T19:41:04.319Z,16.55
2022-08-19T19:43:41.075Z,11.60
2022-08-19T19:46:11.855Z,17.42
2022-08-19T19:48:44.199Z,12.18
2022-08-19T19:51:14.900Z,14.68
2022-08-19T19:53:45.629Z,17.17
2022-08-19T19:56:15.866Z,20.02
2022-08-19T19:58:46.234Z,16.25
2022-08-19T20:01:21.776Z,14.95
2022-08-19T20:03:56.585Z,14.98
2022-08-19T20:06:29.285Z,11.38
2022-08-19T20:09:11.236Z,14.52
2022-08-19T20:11:44.755Z,14.68
2022-08-19T20:14:21.864Z,12.75
2022-08-19T20:16:53.154Z,19.65
2022-08-19T20:19:27.695Z,15.65
2022-08-19T20:21:57.895Z,17.95
2022-08-19T20:24:32.744Z,12.77
2022-08-19T20:27:04.104Z,15.32
2022-08-19T20:29:39.094Z,15.68
2022-08-19T20:32:11.177Z,16.45
2022-08-19T20:34:44.924Z,15.95
2022-08-19T20:37:14.864Z,11.82
2022-08-19T20:39:45.332Z,17.67
2022-08-19T20:42:17.996Z,18.25
2022-08-19T20:44:48.992Z,12.70
2022-08-19T20:47:19.146Z,16.52
2022-08-19T20:49:51.755Z,20.75
2022-08-19T20:52:21.756Z,15.15
2022-08-19T20:54:52.194Z,13.30
2022-08-19T20:57:22.464Z,15.47
2022-08-19T20:59:55.803Z,13.68
2022-08-19T21:02:30.009Z,15.93
2022-08-19T21:05:02.764Z,16.23
2022-08-19T21:07:39.260Z,16.30
2022-08-19T21:10:11.154Z,12.27
2022-08-19T21:12:42.921Z,14.07
2022-08-19T21:15:13.944Z,15.13
2022-08-19T21:17:47.307Z,14.60
2022-08-19T21:20:19.831Z,14.25
2022-08-19T21:22:51.007Z,14.57
2022-08-19T21:27:52.481Z,15.05
2022-08-19T21:30:23.327Z,13.05
2022-08-19T21:32:53.828Z,15.57
2022-08-19T21:35:27.251Z,13.82
2022-08-19T21:37:57.845Z,18.27
2022-08-19T21:40:29.358Z,14.18
2022-08-19T21:43:03.304Z,17.40
2022-08-19T21:45:33.599Z,12.23
2022-08-19T21:48:05.158Z,15.55
2022-08-19T21:50:40.084Z,13.88
2022-08-19T21:53:11.869Z,12.82
2022-08-19T21:55:52.847Z,13.10
2022-08-19T21:58:28.323Z,12.95
2022-08-19T22:01:02.195Z,18.88
2022-08-19T22:03:32.733Z,18.40
2022-08-19T22:06:04.302Z,16.85
2022-08-19T22:08:35.032Z,19.83
2022-08-19T22:11:05.853Z,18.77
2022-08-19T22:13:40.525Z,16.02
2022-08-19T22:16:11.662Z,13.73
2022-08-19T22:18:46.028Z,15.57
2022-08-19T22:21:20.231Z,14.77
2022-08-19T22:24:08.674Z,14.20
2022-08-19T22:26:38.711Z,14.25
2022-08-19T22:29:08.984Z,16.90
2022-08-19T22:31:39.134Z,14.27
2022-08-19T22:34:11.872Z,14.13
2022-08-19T22:36:43.324Z,10.52
2022-08-19T22:39:13.762Z,17.08
2022-08-19T22:41:43.804Z,13.40
2022-08-19T22:44:14.164Z,15.60
2022-08-19T22:46:44.355Z,16.52
2022-08-19T22:49:14.565Z,9.98
2022-08-19T22:52:03.474Z,11.65
2022-08-19T22:54:33.788Z,14.00
2022-08-19T22:57:04.553Z,17.05
2022-08-19T22:59:35.904Z,13.80
2022-08-19T23:02:06.509Z,8.90
2022-08-19T23:04:37.232Z,9.65
2022-08-19T23:07:09.690Z,11.65
2022-08-19T23:09:39.784Z,11.43
2022-08-19T23:12:10.582Z,10.90
2022-08-19T23:14:40.598Z,12.50
2022-08-19T23:17:11.773Z,16.55
2022-08-19T23:19:41.824Z,13.80
2022-08-19T23:22:17.199Z,13.48
2022-08-19T23:24:47.424Z,10.18
2022-08-19T23:27:35.332Z,12.80
2022-08-19T23:30:22.684Z,11.02
2022-08-19T23:32:52.965Z,12.30
2022-08-19T23:35:23.192Z,15.97
2022-08-19T23:37:55.035Z,13.85
2022-08-19T23:40:25.469Z,11.20
2022-08-19T23:42:55.983Z,10.83
2022-08-19T23:47:58.454Z,13.77
2022-08-19T23:50:30.085Z,13.25
2022-08-19T23:53:02.823Z,14.57
2022-08-19T23:55:35.715Z,9.68
2022-08-19T23:58:07.932Z,11.48
